createdAt,value
2023-01-29T00:01:04.901Z,98776.53
2023-01-29T00:03:06.203Z,98772.25
2023-01-29T00:05:25.940Z,98767.94
2023-01-29T00:07:28.613Z,98765.25
2023-01-29T00:09:31.390Z,98769.81
2023-01-29T00:11:32.938Z,98768.16
2023-01-29T00:13:37.270Z,98757.31
2023-01-29T00:15:38.567Z,98761.72
2023-01-29T00:17:39.908Z,98759.59
2023-01-29T00:19:41.209Z,98751.69
2023-01-29T00:21:42.556Z,98760.78
2023-01-29T00:23:43.874Z,98751.97
2023-01-29T00:25:45.182Z,98743.22
2023-01-29T00:27:46.609Z,98742.13
2023-01-29T00:30:07.974Z,98736.00
2023-01-29T00:32:09.373Z,98740.03
2023-01-29T00:34:10.722Z,98725.50
2023-01-29T00:36:12.137Z,98731.38
2023-01-29T00:38:13.451Z,98730.38
2023-01-29T00:40:15.418Z,98739.72
2023-01-29T00:42:35.523Z,98736.25
2023-01-29T00:44:55.470Z,98732.81
2023-01-29T00:46:56.832Z,98717.44
2023-01-29T00:49:00.639Z,98717.41
2023-01-29T00:51:02.241Z,98715.66
2023-01-29T00:53:03.581Z,98719.06
2023-01-29T00:55:04.874Z,98716.50
2023-01-29T00:57:06.240Z,98707.09
2023-01-29T00:59:07.582Z,98701.09
2023-01-29T01:01:08.936Z,98700.28
2023-01-29T01:03:10.350Z,98705.41
2023-01-29T01:05:14.133Z,98702.84
2023-01-29T01:07:15.572Z,98705.41
2023-01-29T01:09:35.268Z,98703.72
2023-01-29T01:11:36.588Z,98703.78
2023-01-29T01:13:37.882Z,98702.97
2023-01-29T01:15:39.167Z,98703.06
2023-01-29T01:17:40.477Z,98697.22
2023-01-29T01:19:41.816Z,98699.84
2023-01-29T01:21:48.359Z,98700.78
2023-01-29T01:23:51.954Z,98705.09
2023-01-29T01:25:53.310Z,98711.09
2023-01-29T01:27:54.604Z,98702.56
2023-01-29T01:29:55.898Z,98699.22
2023-01-29T01:31:57.681Z,98697.59
2023-01-29T01:33:59.043Z,98696.84
2023-01-29T01:36:00.338Z,98699.41
2023-01-29T01:38:02.217Z,98694.38
2023-01-29T01:40:03.515Z,98703.72
2023-01-29T01:42:04.815Z,98705.47
2023-01-29T01:44:06.425Z,98694.41
2023-01-29T01:46:07.799Z,98697.03
2023-01-29T01:48:11.339Z,98691.03
2023-01-29T01:50:12.685Z,98688.47
2023-01-29T01:52:14.484Z,98683.34
2023-01-29T01:54:15.807Z,98681.66
2023-01-29T01:56:17.146Z,98684.25
2023-01-29T01:58:18.505Z,98691.03
2023-01-29T02:00:20.114Z,98687.66
2023-01-29T02:02:40.296Z,98688.50
2023-01-29T02:05:00.144Z,98681.63
2023-01-29T02:07:20.038Z,98686.66
2023-01-29T02:09:36.418Z,98695.09
2023-01-29T02:11:37.760Z,98697.53
2023-01-29T02:13:39.096Z,98705.88
2023-01-29T02:15:41.914Z,98688.75
2023-01-29T02:17:48.203Z,98682.69
2023-01-29T02:19:49.576Z,98680.00
2023-01-29T02:21:51.301Z,98673.13
2023-01-29T02:23:52.689Z,98681.59
2023-01-29T02:25:54.002Z,98673.06
2023-01-29T02:27:55.295Z,98669.69
2023-01-29T02:29:56.619Z,98665.38
2023-01-29T02:31:57.999Z,98679.09
2023-01-29T02:33:59.385Z,98667.19
2023-01-29T02:36:00.764Z,98668.97
2023-01-29T02:38:02.080Z,98669.81
2023-01-29T02:40:04.259Z,98680.94
2023-01-29T02:42:06.111Z,98680.16
2023-01-29T02:44:07.434Z,98681.91
2023-01-29T02:46:08.832Z,98670.91
2023-01-29T02:48:10.151Z,98669.22
2023-01-29T02:50:11.487Z,98673.56
2023-01-29T02:52:12.778Z,98670.22
2023-01-29T02:54:14.110Z,98667.66
2023-01-29T02:56:15.420Z,98655.81
2023-01-29T02:58:16.769Z,98668.56
2023-01-29T03:00:18.445Z,98662.66
2023-01-29T03:02:20.049Z,98665.22
2023-01-29T03:04:21.430Z,98664.41
2023-01-29T03:06:24.267Z,98663.59
2023-01-29T03:08:29.596Z,98658.53
2023-01-29T03:10:31.141Z,98671.28
2023-01-29T03:12:35.510Z,98509.72
2023-01-29T03:14:55.632Z,98649.16
2023-01-29T03:16:56.922Z,98649.16
2023-01-29T03:18:58.262Z,98660.25
2023-01-29T03:20:59.553Z,98664.47
2023-01-29T03:23:02.355Z,98661.94
2023-01-29T03:25:22.456Z,98665.38
2023-01-29T03:27:42.415Z,98659.34
2023-01-29T03:30:02.259Z,98657.53
2023-01-29T03:32:09.437Z,98669.38
2023-01-29T03:34:16.586Z,98676.09
2023-01-29T03:36:17.974Z,98675.16
2023-01-29T03:38:19.269Z,98670.75
2023-01-29T03:40:20.566Z,98667.28
2023-01-29T03:42:22.100Z,98678.25
2023-01-29T03:44:24.950Z,98671.38
2023-01-29T03:46:29.310Z,98663.72
2023-01-29T03:48:30.624Z,98667.94
2023-01-29T03:50:31.952Z,98666.22
2023-01-29T03:52:34.982Z,98673.94
2023-01-29T03:54:36.256Z,98672.31
2023-01-29T03:56:37.589Z,98680.06
2023-01-29T03:58:38.918Z,98683.47
2023-01-29T04:00:40.234Z,98676.69
2023-01-29T04:02:41.524Z,98680.97
2023-01-29T04:04:42.819Z,98666.50
2023-01-29T04:06:44.120Z,98667.41
2023-01-29T04:08:45.475Z,98663.22
2023-01-29T04:10:46.762Z,98658.22
2023-01-29T04:12:48.087Z,98662.56
2023-01-29T04:14:49.425Z,98660.88
2023-01-29T04:16:51.060Z,98662.63
2023-01-29T04:18:52.717Z,98655.84
2023-01-29T04:20:54.055Z,98654.16
2023-01-29T04:22:55.386Z,98653.34
2023-01-29T04:25:02.460Z,98649.13
2023-01-29T04:27:03.824Z,98646.59
2023-01-29T04:29:05.172Z,98636.47
2023-01-29T04:31:06.643Z,98642.47
2023-01-29T04:33:08.010Z,98639.09
2023-01-29T04:35:09.331Z,98634.88
2023-01-29T04:37:10.657Z,98633.22
2023-01-29T04:39:12.151Z,98627.25
2023-01-29T04:41:13.454Z,98622.94
2023-01-29T04:43:14.758Z,98621.19
2023-01-29T04:45:16.089Z,98617.75
2023-01-29T04:47:17.419Z,98617.72
2023-01-29T04:49:18.981Z,98616.78
2023-01-29T04:51:20.267Z,98614.97
2023-01-29T04:53:21.610Z,98609.78
2023-01-29T04:55:22.898Z,98606.28
2023-01-29T04:57:25.525Z,98597.59
2023-01-29T04:59:26.873Z,98601.75
2023-01-29T05:01:29.809Z,98602.56
2023-01-29T05:03:31.175Z,98604.22
2023-01-29T05:05:32.469Z,98599.88
2023-01-29T05:07:33.898Z,98593.03
2023-01-29T05:09:35.269Z,98585.34
2023-01-29T05:11:36.596Z,98581.97
2023-01-29T05:13:39.514Z,98574.28
2023-01-29T05:15:41.089Z,98563.22
2023-01-29T05:17:42.456Z,98571.09
2023-01-29T05:19:43.781Z,98568.75
2023-01-29T05:21:45.118Z,98567.09
2023-01-29T05:23:53.332Z,98556.91
2023-01-29T05:25:54.747Z,98561.22
2023-01-29T05:28:14.072Z,98561.25
2023-01-29T05:30:15.732Z,98554.53
2023-01-29T05:32:17.336Z,98564.78
2023-01-29T05:34:18.637Z,98560.63
2023-01-29T05:36:19.969Z,98556.44
2023-01-29T05:38:21.308Z,98552.19
2023-01-29T05:40:22.641Z,98554.81
2023-01-29T05:42:24.554Z,98565.09
2023-01-29T05:44:25.899Z,98562.63
2023-01-29T05:46:27.281Z,98568.63
2023-01-29T05:48:32.391Z,98561.84
2023-01-29T05:50:33.683Z,98556.75
2023-01-29T05:52:35.023Z,98554.19
2023-01-29T05:54:36.534Z,98555.91
2023-01-29T05:56:37.866Z,98566.97
2023-01-29T05:58:39.161Z,98573.66
2023-01-29T06:00:40.546Z,98572.75
2023-01-29T06:02:42.057Z,98584.66
2023-01-29T06:04:43.413Z,98590.56
2023-01-29T06:06:44.851Z,98588.78
2023-01-29T06:08:46.182Z,98584.44
2023-01-29T06:10:47.514Z,98589.44
2023-01-29T06:12:48.853Z,98599.53
2023-01-29T06:14:50.187Z,98591.78
2023-01-29T06:16:51.536Z,98589.97
2023-01-29T06:18:52.965Z,98594.16
2023-01-29T06:20:54.303Z,98599.22
2023-01-29T06:22:58.655Z,98600.91
2023-01-29T06:25:00.132Z,98597.44
2023-01-29T06:27:02.327Z,98593.13
2023-01-29T06:29:03.705Z,98595.72
2023-01-29T06:31:22.114Z,98592.41
2023-01-29T06:33:26.490Z,98593.38
2023-01-29T06:35:27.794Z,98586.69
2023-01-29T06:37:29.158Z,98592.69
2023-01-29T06:39:30.446Z,98594.47
2023-01-29T06:41:31.751Z,98606.47
2023-01-29T06:43:33.091Z,98615.84
2023-01-29T06:45:34.479Z,98628.59
2023-01-29T06:47:35.795Z,98645.75
2023-01-29T06:49:37.190Z,98642.44
2023-01-29T06:51:38.514Z,98647.59
2023-01-29T06:53:39.848Z,98650.22
2023-01-29T06:55:41.187Z,98651.97
2023-01-29T06:57:42.460Z,98656.31
2023-01-29T06:59:43.765Z,98674.16
2023-01-29T07:01:45.220Z,98673.31
2023-01-29T07:03:47.476Z,98674.19
2023-01-29T07:05:48.812Z,98671.69
2023-01-29T07:07:50.266Z,98656.44
2023-01-29T07:09:51.557Z,98656.47
2023-01-29T07:11:52.854Z,98659.94
2023-01-29T07:13:54.197Z,98678.69
2023-01-29T07:15:55.571Z,98666.81
2023-01-29T07:17:57.207Z,98669.34
2023-01-29T07:19:58.604Z,98671.88
2023-01-29T07:22:02.499Z,98676.13
2023-01-29T07:24:03.939Z,98681.13
2023-01-29T07:26:05.367Z,98674.22
2023-01-29T07:28:06.949Z,98676.66
2023-01-29T07:30:08.301Z,98663.84
2023-01-29T07:32:09.652Z,98671.41
2023-01-29T07:34:10.965Z,98673.91
2023-01-29T07:36:12.368Z,98671.25
2023-01-29T07:38:13.696Z,98671.16
2023-01-29T07:40:15.329Z,98667.69
2023-01-29T07:42:16.742Z,98665.09
2023-01-29T07:44:18.130Z,98670.13
2023-01-29T07:46:19.531Z,98493.34
2023-01-29T07:48:20.839Z,98648.72
2023-01-29T07:50:22.247Z,98640.94
2023-01-29T07:52:23.522Z,98634.03
2023-01-29T07:54:24.847Z,98621.19
2023-01-29T07:56:26.151Z,98628.81
2023-01-29T07:58:27.663Z,98613.47
2023-01-29T08:00:29.107Z,98617.78
2023-01-29T08:02:30.501Z,98622.13
2023-01-29T08:04:31.883Z,98623.91
2023-01-29T08:06:33.206Z,98622.19
2023-01-29T08:08:34.529Z,98625.66
2023-01-29T08:10:35.868Z,98625.56
2023-01-29T08:12:37.198Z,98619.53
2023-01-29T08:14:38.511Z,98603.34
2023-01-29T08:16:39.947Z,98607.75
2023-01-29T08:18:44.154Z,98600.09
2023-01-29T08:20:45.446Z,98602.91
2023-01-29T08:22:46.730Z,98598.00
2023-01-29T08:24:54.413Z,98591.34
2023-01-29T08:27:01.557Z,98594.84
2023-01-29T08:29:02.854Z,98591.50
2023-01-29T08:31:04.446Z,98589.88
2023-01-29T08:33:05.812Z,98590.78
2023-01-29T08:35:07.944Z,98587.44
2023-01-29T08:37:09.243Z,98584.09
2023-01-29T08:39:10.578Z,98585.00
2023-01-29T08:41:11.878Z,98582.50
2023-01-29T08:43:13.168Z,98581.63
2023-01-29T08:45:14.510Z,98592.72
2023-01-29T08:47:15.801Z,98590.16
2023-01-29T08:49:17.250Z,98586.78
2023-01-29T08:51:18.698Z,98591.03
2023-01-29T08:53:24.349Z,98602.03
2023-01-29T08:55:25.743Z,98609.59
2023-01-29T08:57:27.085Z,98615.44
2023-01-29T08:59:28.368Z,98616.16
2023-01-29T09:01:29.717Z,98612.66
2023-01-29T09:03:31.082Z,98611.69
2023-01-29T09:05:32.550Z,98599.75
2023-01-29T09:07:33.965Z,98597.94
2023-01-29T09:09:35.265Z,98590.25
2023-01-29T09:11:36.739Z,98580.81
2023-01-29T09:13:38.128Z,98568.03
2023-01-29T09:15:39.469Z,98566.28
2023-01-29T09:17:41.255Z,98564.56
2023-01-29T09:19:42.645Z,98573.03
2023-01-29T09:21:44.005Z,98571.28
2023-01-29T09:23:45.308Z,98565.31
2023-01-29T09:25:46.805Z,98570.44
2023-01-29T09:27:50.994Z,98568.75
2023-01-29T09:29:52.295Z,98578.13
2023-01-29T09:31:53.716Z,98574.75
2023-01-29T09:33:55.138Z,98573.91
2023-01-29T09:35:56.509Z,98582.50
2023-01-29T09:37:57.955Z,98578.25
2023-01-29T09:39:59.279Z,98580.84
2023-01-29T09:42:00.576Z,98577.53
2023-01-29T09:44:01.905Z,98566.56
2023-01-29T09:46:03.247Z,98570.03
2023-01-29T09:48:05.830Z,98562.47
2023-01-29T09:50:07.167Z,98561.66
2023-01-29T09:52:08.496Z,98558.31
2023-01-29T09:54:09.946Z,98567.75
2023-01-29T09:56:11.290Z,98553.34
2023-01-29T09:58:12.640Z,98550.03
2023-01-29T10:00:13.983Z,98550.06
2023-01-29T10:02:18.286Z,98552.69
2023-01-29T10:04:19.743Z,98551.91
2023-01-29T10:06:21.130Z,98544.28
2023-01-29T10:08:22.534Z,98540.91
2023-01-29T10:10:23.925Z,98551.13
2023-01-29T10:12:25.221Z,98556.47
2023-01-29T10:14:26.529Z,98548.78
2023-01-29T10:16:27.861Z,98555.41
2023-01-29T10:18:29.200Z,98553.28
2023-01-29T10:20:33.682Z,98548.88
2023-01-29T10:22:35.022Z,98524.53
2023-01-29T10:24:36.350Z,98527.91
2023-01-29T10:26:38.651Z,98537.81
2023-01-29T10:28:40.167Z,98546.50
2023-01-29T10:30:44.566Z,98540.72
2023-01-29T10:32:46.010Z,98542.50
2023-01-29T10:34:50.420Z,98544.94
2023-01-29T10:36:51.754Z,98549.03
2023-01-29T10:38:53.112Z,98542.47
2023-01-29T10:40:54.489Z,98540.78
2023-01-29T10:42:58.926Z,98542.47
2023-01-29T10:45:00.252Z,98529.72
2023-01-29T10:47:02.232Z,98523.66
2023-01-29T10:49:03.534Z,98517.66
2023-01-29T10:51:04.827Z,98511.66
2023-01-29T10:53:06.184Z,98508.22
2023-01-29T10:55:07.679Z,98514.09
2023-01-29T10:57:09.094Z,98512.34
2023-01-29T10:59:10.380Z,98504.69
2023-01-29T11:01:11.711Z,98502.03
2023-01-29T11:03:26.436Z,98504.56
2023-01-29T11:05:29.082Z,98506.22
2023-01-29T11:07:32.090Z,98485.75
2023-01-29T11:09:33.423Z,98489.13
2023-01-29T11:11:37.576Z,98490.00
2023-01-29T11:13:38.900Z,98483.16
2023-01-29T11:15:40.227Z,98481.50
2023-01-29T11:17:42.763Z,98482.34
2023-01-29T11:19:44.118Z,98482.41
2023-01-29T11:21:45.457Z,98330.44
2023-01-29T11:23:46.822Z,98461.19
2023-01-29T11:25:48.134Z,98454.44
2023-01-29T11:27:49.557Z,98446.84
2023-01-29T11:29:51.381Z,98437.53
2023-01-29T11:31:52.690Z,98432.41
2023-01-29T11:33:54.001Z,98437.56
2023-01-29T11:35:57.643Z,98441.88
2023-01-29T11:37:58.935Z,98434.28
2023-01-29T11:40:00.252Z,98438.59
2023-01-29T11:42:11.154Z,98434.44
2023-01-29T11:44:12.442Z,98434.53
2023-01-29T11:46:13.808Z,98436.31
2023-01-29T11:48:18.240Z,98436.38
2023-01-29T11:50:22.604Z,98431.38
2023-01-29T11:52:23.916Z,98422.09
2023-01-29T11:54:25.250Z,98419.56
2023-01-29T11:56:26.580Z,98415.31
2023-01-29T11:58:27.888Z,98411.06
2023-01-29T12:00:29.250Z,98417.03
2023-01-29T12:02:31.542Z,98418.03
2023-01-29T12:04:32.906Z,98427.97
2023-01-29T12:06:34.247Z,98428.59
2023-01-29T12:08:41.424Z,98431.88
2023-01-29T12:10:42.882Z,98424.13
2023-01-29T12:12:44.212Z,98413.88
2023-01-29T12:14:45.634Z,98416.38
2023-01-29T12:16:46.937Z,98414.53
2023-01-29T12:18:48.315Z,98411.88
2023-01-29T12:20:49.611Z,98408.44
2023-01-29T12:22:50.961Z,98401.63
2023-01-29T12:24:52.462Z,98393.91
2023-01-29T12:26:53.768Z,98393.81
2023-01-29T12:28:55.124Z,98391.25
2023-01-29T12:30:59.522Z,98397.22
2023-01-29T12:33:00.847Z,98394.56
2023-01-29T12:35:02.764Z,98387.75
2023-01-29T12:37:04.176Z,98380.13
2023-01-29T12:39:05.550Z,98371.66
2023-01-29T12:41:06.896Z,98372.56
2023-01-29T12:43:08.241Z,98370.00
2023-01-29T12:45:10.897Z,98359.88
2023-01-29T12:47:12.264Z,98359.13
2023-01-29T12:49:13.606Z,98364.34
2023-01-29T12:51:14.948Z,98352.50
2023-01-29T12:53:16.246Z,98354.22
2023-01-29T12:55:17.559Z,98353.38
2023-01-29T12:57:19.210Z,98357.66
2023-01-29T12:59:20.502Z,98355.16
2023-01-29T13:01:22.140Z,98350.81
2023-01-29T13:03:23.579Z,98351.59
2023-01-29T13:05:24.932Z,98353.59
2023-01-29T13:07:26.225Z,98348.75
2023-01-29T13:09:27.752Z,98349.75
2023-01-29T13:11:29.145Z,98350.72
2023-01-29T13:13:30.456Z,98356.75
2023-01-29T13:15:31.752Z,98353.41
2023-01-29T13:17:38.787Z,98354.41
2023-01-29T13:19:43.495Z,98351.13
2023-01-29T13:21:44.841Z,98334.94
2023-01-29T13:23:47.329Z,98336.59
2023-01-29T13:25:48.635Z,98334.84
2023-01-29T13:27:49.971Z,98335.72
2023-01-29T13:29:51.308Z,98332.22
2023-01-29T13:31:52.975Z,98325.25
2023-01-29T13:33:54.426Z,98325.13
2023-01-29T13:36:01.616Z,98338.56
2023-01-29T13:38:05.896Z,98332.50
2023-01-29T13:40:07.223Z,98332.41
2023-01-29T13:42:08.566Z,98327.22
2023-01-29T13:44:09.918Z,98322.94
2023-01-29T13:46:11.326Z,98324.59
2023-01-29T13:48:12.723Z,98321.13
2023-01-29T13:50:14.053Z,98328.75
2023-01-29T13:52:15.390Z,98319.34
2023-01-29T13:54:16.690Z,98316.00
2023-01-29T13:56:21.094Z,98314.28
2023-01-29T13:58:25.558Z,98316.00
2023-01-29T14:00:33.111Z,98314.31
2023-01-29T14:02:34.503Z,98324.66
2023-01-29T14:04:35.823Z,98323.94
2023-01-29T14:06:37.201Z,98323.19
2023-01-29T14:08:38.501Z,98329.28
2023-01-29T14:10:39.811Z,98320.88
2023-01-29T14:12:41.260Z,98321.84
2023-01-29T14:14:42.589Z,98315.97
2023-01-29T14:16:44.008Z,98327.97
2023-01-29T14:18:45.439Z,98316.09
2023-01-29T14:20:49.500Z,98312.75
2023-01-29T14:22:50.806Z,98306.81
2023-01-29T14:24:52.136Z,98306.00
2023-01-29T14:26:53.590Z,98305.22
2023-01-29T14:28:55.080Z,98301.81
2023-01-29T14:30:56.515Z,98303.53
2023-01-29T14:32:57.910Z,98309.47
2023-01-29T14:34:59.238Z,98300.91
2023-01-29T14:37:00.565Z,98302.56
2023-01-29T14:39:02.236Z,98300.78
2023-01-29T14:41:03.532Z,98296.41
2023-01-29T14:43:04.903Z,98303.97
2023-01-29T14:45:06.233Z,98296.28
2023-01-29T14:47:07.565Z,98291.13
2023-01-29T14:49:09.082Z,98294.44
2023-01-29T14:51:10.949Z,98285.06
2023-01-29T14:53:12.353Z,98288.44
2023-01-29T14:55:13.700Z,98299.50
2023-01-29T14:57:15.045Z,98308.81
2023-01-29T14:59:16.420Z,98301.97
2023-01-29T15:01:18.240Z,98301.97
2023-01-29T15:03:20.099Z,98313.88
2023-01-29T15:05:21.463Z,98308.72
2023-01-29T15:07:22.794Z,98315.53
2023-01-29T15:09:26.774Z,98303.63
2023-01-29T15:11:36.102Z,98309.56
2023-01-29T15:13:37.507Z,98307.06
2023-01-29T15:15:38.936Z,98307.91
2023-01-29T15:17:40.322Z,98319.84
2023-01-29T15:19:44.591Z,98314.72
2023-01-29T15:21:45.890Z,98319.78
2023-01-29T15:23:50.326Z,98314.81
2023-01-29T15:25:51.653Z,98309.75
2023-01-29T15:27:53.039Z,98315.75
2023-01-29T15:29:54.340Z,98317.50
2023-01-29T15:31:55.868Z,98317.53
2023-01-29T15:34:03.221Z,98310.78
2023-01-29T15:36:08.468Z,98313.38
2023-01-29T15:38:10.097Z,98313.41
2023-01-29T15:40:11.398Z,98308.38
2023-01-29T15:42:12.736Z,98299.03
2023-01-29T15:44:14.706Z,98293.16
2023-01-29T15:46:16.006Z,98299.97
2023-01-29T15:48:17.449Z,98295.72
2023-01-29T15:50:18.786Z,98297.47
2023-01-29T15:52:22.888Z,98294.91
2023-01-29T15:54:24.390Z,98293.22
2023-01-29T15:56:26.129Z,98298.31
2023-01-29T15:58:27.459Z,98293.19
2023-01-29T16:00:29.726Z,98287.22
2023-01-29T16:02:31.167Z,98287.22
2023-01-29T16:04:32.549Z,98284.63
2023-01-29T16:06:33.875Z,98286.28
2023-01-29T16:08:38.403Z,98293.09
2023-01-29T16:10:40.592Z,98287.94
2023-01-29T16:12:41.934Z,98288.75
2023-01-29T16:14:43.307Z,98287.84
2023-01-29T16:16:45.219Z,98280.19
2023-01-29T16:18:59.464Z,98284.41
2023-01-29T16:21:02.259Z,98279.28
2023-01-29T16:23:03.565Z,98281.84
2023-01-29T16:25:05.423Z,98278.41
2023-01-29T16:27:06.756Z,98278.44
2023-01-29T16:29:08.070Z,98275.00
2023-01-29T16:31:13.998Z,98274.94
2023-01-29T16:33:15.568Z,98268.06
2023-01-29T16:35:17.428Z,98268.06
2023-01-29T16:37:19.006Z,98267.22
2023-01-29T16:39:23.337Z,98267.22
2023-01-29T16:41:24.738Z,98265.47
2023-01-29T16:43:28.412Z,98264.66
2023-01-29T16:45:32.557Z,98257.03
2023-01-29T16:47:34.465Z,98255.28
2023-01-29T16:49:35.814Z,98251.94
2023-01-29T16:51:37.116Z,98254.47
2023-01-29T16:53:38.454Z,98251.09
2023-01-29T16:55:39.786Z,98251.13
2023-01-29T16:57:41.078Z,98253.72
2023-01-29T16:59:43.443Z,98249.53
2023-01-29T17:01:50.874Z,98247.88
2023-01-29T17:03:52.279Z,98241.16
2023-01-29T17:05:53.691Z,98243.84
2023-01-29T17:07:54.982Z,98236.34
2023-01-29T17:09:59.226Z,98228.84
2023-01-29T17:12:00.557Z,98234.94
2023-01-29T17:14:01.891Z,98224.00
2023-01-29T17:16:03.740Z,98220.72
2023-01-29T17:18:05.104Z,98223.44
2023-01-29T17:20:06.433Z,98211.63
2023-01-29T17:22:14.598Z,98210.81
2023-01-29T17:24:15.987Z,98215.88
2023-01-29T17:26:17.354Z,98213.66
2023-01-29T17:28:18.720Z,98225.25
2023-01-29T17:30:20.031Z,98220.69
2023-01-29T17:32:22.507Z,98216.16
2023-01-29T17:34:24.415Z,98217.66
2023-01-29T17:36:25.754Z,98216.53
2023-01-29T17:38:27.096Z,98220.63
2023-01-29T17:40:28.431Z,98210.19
2023-01-29T17:42:29.766Z,98218.56
2023-01-29T17:44:31.487Z,98214.06
2023-01-29T17:46:32.846Z,98211.41
2023-01-29T17:48:34.142Z,98217.13
2023-01-29T17:50:35.505Z,98206.44
2023-01-29T17:52:36.813Z,98205.31
2023-01-29T17:54:38.173Z,98211.41
2023-01-29T17:56:39.501Z,98206.97
2023-01-29T17:58:40.794Z,98213.53
2023-01-29T18:00:44.782Z,98207.41
2023-01-29T18:02:46.179Z,98202.09
2023-01-29T18:04:50.930Z,98213.72
2023-01-29T18:06:52.291Z,98207.06
2023-01-29T18:08:53.623Z,98208.78
2023-01-29T18:10:54.911Z,98207.22
2023-01-29T18:12:56.238Z,98199.06
2023-01-29T18:14:57.623Z,98203.03
2023-01-29T18:17:02.013Z,98202.53
2023-01-29T18:19:03.318Z,98198.63
2023-01-29T18:21:08.086Z,98198.50
2023-01-29T18:23:09.403Z,98202.81
2023-01-29T18:25:10.701Z,98195.28
2023-01-29T18:27:12.067Z,98191.22
2023-01-29T18:29:16.502Z,98176.69
2023-01-29T18:31:20.820Z,98174.97
2023-01-29T18:33:25.904Z,98173.66
2023-01-29T18:35:27.231Z,98173.59
2023-01-29T18:37:34.298Z,98165.84
2023-01-29T18:39:35.991Z,98158.44
2023-01-29T18:41:37.559Z,98160.25
2023-01-29T18:43:41.959Z,98167.03
2023-01-29T18:45:43.315Z,98159.34
2023-01-29T18:47:44.674Z,98157.59
2023-01-29T18:49:46.039Z,98158.13
2023-01-29T18:51:47.364Z,98159.97
2023-01-29T18:53:48.690Z,98149.75
2023-01-29T18:55:50.007Z,98143.72
2023-01-29T18:58:28.282Z,98148.16
2023-01-29T19:00:12.737Z,98138.50
2023-01-29T19:02:19.685Z,98128.13
2023-01-29T19:04:21.080Z,98121.34
2023-01-29T19:06:22.422Z,98118.78
2023-01-29T19:08:30.367Z,98112.78
2023-01-29T19:10:31.680Z,98113.72
2023-01-29T19:12:35.814Z,98115.38
2023-01-29T19:14:37.144Z,98108.00
2023-01-29T19:16:38.481Z,98104.91
2023-01-29T19:18:39.829Z,98095.63
2023-01-29T19:20:41.990Z,98092.56
2023-01-29T19:22:43.433Z,98093.63
2023-01-29T19:24:44.744Z,98085.03
2023-01-29T19:26:46.342Z,98089.22
2023-01-29T19:28:47.686Z,98082.34
2023-01-29T19:30:49.325Z,98074.38
2023-01-29T19:32:50.700Z,98073.59
2023-01-29T19:34:53.259Z,98067.28
2023-01-29T19:36:54.681Z,98063.16
2023-01-29T19:38:56.625Z,98058.91
2023-01-29T19:40:57.930Z,98061.47
2023-01-29T19:42:59.532Z,98055.56
2023-01-29T19:45:00.939Z,98070.09
2023-01-29T19:47:02.311Z,98062.50
2023-01-29T19:49:06.617Z,98066.81
2023-01-29T19:51:10.751Z,98061.72
2023-01-29T19:53:18.010Z,98055.81
2023-01-29T19:55:19.857Z,98056.72
2023-01-29T19:57:21.411Z,98060.22
2023-01-29T19:59:22.706Z,98055.16
2023-01-29T20:01:29.581Z,98053.50
2023-01-29T20:03:30.960Z,98055.31
2023-01-29T20:05:32.269Z,98039.22
2023-01-29T20:07:33.559Z,98041.84
2023-01-29T20:09:34.891Z,98036.00
2023-01-29T20:11:36.260Z,98036.00
2023-01-29T20:13:37.863Z,98041.19
2023-01-29T20:15:39.158Z,98031.81
2023-01-29T20:17:40.449Z,98031.88
2023-01-29T20:19:42.653Z,98032.78
2023-01-29T20:21:45.434Z,98030.25
2023-01-29T20:23:47.435Z,98031.94
2023-01-29T20:25:48.794Z,98033.63
2023-01-29T20:27:50.112Z,98032.72
2023-01-29T20:29:52.728Z,98032.69
2023-01-29T20:31:56.849Z,98026.69
2023-01-29T20:33:58.145Z,98028.34
2023-01-29T20:35:59.628Z,98028.25
2023-01-29T20:38:00.991Z,98029.91
2023-01-29T20:40:02.326Z,98031.81
2023-01-29T20:42:03.673Z,98038.84
2023-01-29T20:44:04.969Z,98028.38
2023-01-29T20:46:09.262Z,98022.00
2023-01-29T20:48:19.826Z,98017.84
2023-01-29T20:50:21.170Z,98017.25
2023-01-29T20:52:22.481Z,98007.50
2023-01-29T20:54:24.111Z,98007.22
2023-01-29T20:56:36.088Z,98003.56
2023-01-29T20:58:43.596Z,97992.59
2023-01-29T21:00:44.932Z,97993.09
2023-01-29T21:02:46.244Z,97990.91
2023-01-29T21:04:47.588Z,97976.66
2023-01-29T21:06:48.906Z,97985.53
2023-01-29T21:10:51.552Z,97972.09
2023-01-29T21:12:54.640Z,97969.69
2023-01-29T21:14:58.747Z,97962.81
2023-01-29T21:17:00.086Z,97966.78
2023-01-29T21:19:03.375Z,97956.56
2023-01-29T21:21:04.723Z,97967.03
2023-01-29T21:23:07.211Z,97955.34
2023-01-29T21:25:08.699Z,97958.47
2023-01-29T21:27:10.039Z,97951.66
2023-01-29T21:29:11.350Z,97950.69
2023-01-29T21:31:14.376Z,97956.56
2023-01-29T21:33:15.745Z,97946.25
2023-01-29T21:35:17.046Z,97942.78
2023-01-29T21:37:18.369Z,97939.53
2023-01-29T21:39:21.097Z,97937.88
2023-01-29T21:41:42.390Z,97934.50
2023-01-29T21:43:43.708Z,97937.09
2023-01-29T21:45:45.054Z,97923.56
2023-01-29T21:47:46.538Z,97924.25
2023-01-29T21:49:47.851Z,97917.88
2023-01-29T21:51:49.182Z,97921.75
2023-01-29T21:53:53.495Z,97916.38
2023-01-29T21:55:54.905Z,97914.34
2023-01-29T21:57:56.326Z,97916.97
2023-01-29T22:00:00.999Z,97904.66
2023-01-29T22:02:02.412Z,97907.97
2023-01-29T22:04:03.913Z,97921.78
2023-01-29T22:06:05.265Z,97915.25
2023-01-29T22:08:06.600Z,97912.41
2023-01-29T22:10:08.109Z,97909.59
2023-01-29T22:12:09.573Z,97905.09
2023-01-29T22:14:10.864Z,97898.97
2023-01-29T22:16:12.195Z,97899.69
2023-01-29T22:18:13.527Z,97893.53
2023-01-29T22:20:15.574Z,97877.25
2023-01-29T22:22:19.718Z,97872.13
2023-01-29T22:24:21.050Z,97859.28
2023-01-29T22:26:22.397Z,97857.56
2023-01-29T22:28:23.706Z,97854.88
2023-01-29T22:30:25.833Z,97845.50
2023-01-29T22:32:27.289Z,97836.13
2023-01-29T22:34:28.659Z,97837.75
2023-01-29T22:36:29.954Z,97833.41
2023-01-29T22:38:31.288Z,97833.28
2023-01-29T22:40:32.620Z,97823.09
2023-01-29T22:42:33.914Z,97827.38
2023-01-29T22:44:35.274Z,97822.41
2023-01-29T22:46:36.665Z,97819.09
2023-01-29T22:48:38.060Z,97813.34
2023-01-29T22:50:39.382Z,97812.44
2023-01-29T22:52:42.889Z,97805.06
2023-01-29T22:54:44.199Z,97795.84
2023-01-29T22:56:45.589Z,97808.81
2023-01-29T22:58:46.933Z,97795.34
2023-01-29T23:00:48.259Z,97789.41
2023-01-29T23:02:49.571Z,97795.50
2023-01-29T23:04:51.055Z,97789.66
2023-01-29T23:06:52.414Z,97794.06
2023-01-29T23:08:53.704Z,97785.59
2023-01-29T23:10:55.049Z,97796.81
2023-01-29T23:12:56.348Z,97784.97
2023-01-29T23:14:57.634Z,97788.50
2023-01-29T23:16:58.980Z,97779.28
2023-01-29T23:19:00.313Z,97779.41
2023-01-29T23:21:01.611Z,97778.56
2023-01-29T23:23:02.939Z,97773.59
2023-01-29T23:25:04.318Z,97765.09
2023-01-29T23:27:14.739Z,97760.06
2023-01-29T23:29:16.039Z,97757.56
2023-01-29T23:31:17.443Z,97754.22
2023-01-29T23:33:18.782Z,97756.78
2023-01-29T23:35:20.076Z,97745.66
2023-01-29T23:37:21.419Z,97733.69
2023-01-29T23:39:22.782Z,97738.78
2023-01-29T23:41:24.086Z,97738.78
2023-01-29T23:43:25.422Z,97740.34
2023-01-29T23:45:26.787Z,97723.19
2023-01-29T23:47:28.089Z,97715.31
2023-01-29T23:49:29.392Z,97716.03
2023-01-29T23:51:30.735Z,97722.69
2023-01-29T23:53:32.059Z,97704.69
2023-01-29T23:55:33.364Z,97691.72
2023-01-29T23:57:34.755Z,97691.59
2023-01-29T23:59:36.126Z,97682.13
